Terminal Aerodrome Forecast
Issued by NWS

Home | Current Version | Previous Version | Text Only | Print | Product List | Glossary On
Versions: 1 2 3 4 5 6 7 8 9 10 11 12 13 14 15 16 17 18 19 20 21
000
FTUS44 KLZK 201300 AAA
TAFHOT
TAF AMD
KHOT 201332Z 2014/2112 00000KT 6SM BR SCT002
     FM201500 15005KT P6SM FEW040
     FM201800 17005KT P6SM SCT040
     FM210000 VRB03KT P6SM SKC
      TEMPO 2109/2112 3SM BR SCT005=

USA.gov is the U.S. government's official web portal to all federal, state and local government web resources and services.